KINT/INT METAR and TAF weather

Enter ICAO airport designator
Station Type Date Time Source
KINT METAR 2021/05/14 22:54 UTC NOAA

KINT 142254Z 27004KT 10SM SCT100 SCT120 19/03 A3025 RMK AO2 SLP241 T01890028


Station Type Date Time Source
KINT Decoded METAR 2021/05/14 22:54 UTC NOAA

WINSTON SALEM SMITH REYNOLDS, NC, United States (KINT) 36-08N 80-14W 291M
May 14, 2021 - 06:54 PM EDT / 2021.05.14 2254 UTC
Wind: from the W (270 degrees) at 5 MPH (4 KT):0
Visibility: 10 mile(s):0
Sky conditions: partly cloudy
Temperature: 66.0 F (18.9 C)
Dew Point: 37.0 F (2.8 C)
Relative Humidity: 34%
Pressure (altimeter): 30.25 in. Hg (1024 hPa)
ob: KINT 142254Z 27004KT 10SM SCT100 SCT120 19/03 A3025 RMK AO2 SLP241 T01890028
cycle: 23

Station Type Date Time Source
KINT TAF 2021/05/14 18:22 UTC NOAA

TAF KINT 141720Z 1418/1518 VRB05KT P6SM VCSH SCT060 BKN100
FM150300 34003KT P6SM FEW060 FEW250

Example: see airport list